Saturday, October 21, 2017, 3:36 PM EDT
Back to Local

KEEN, Keene, Dillant-hopkins Airport

Location: Keene, NH, United States Lat: 42.9
Local Time: 3:36 PM EDT (19:36 GMT) Lon: -72.267
Time Zone: US/Eastern Elev: 488 ft

Show me the last for .
Show Decoded

2017-10-21 14:56 METAR KEEN 211856Z AUTO VRB06KT 10SM CLR 25/06 A3026 RMK AO2 SLP267 T02500056 =
2017-10-21 13:56 METAR KEEN 211756Z AUTO 24006KT 8SM CLR 24/04 A3027 RMK AO2 SLP269 T02440044
                 10244 20011 58014 =
2017-10-21 12:56 METAR KEEN 211656Z AUTO 21003KT 10SM CLR 22/06 A3028 RMK AO2 SLP274 T02220056 =
2017-10-21 11:56 METAR KEEN 211556Z AUTO 00000KT 7SM CLR 19/06 A3030 RMK AO2 SLP282 T01940056 =
2017-10-21 10:56 METAR KEEN 211456Z AUTO 00000KT 10SM CLR 17/07 A3031 RMK AO2 SLP285 T01670072
                 50000 =
2017-10-21 09:56 METAR KEEN 211356Z AUTO 00000KT 10SM CLR 11/06 A3032 RMK AO2 SLP288 T01110061 =
2017-10-21 08:56 METAR KEEN 211256Z AUTO 00000KT 9SM CLR 06/06 A3032 RMK AO2 SLP289 T00610056 =
2017-10-21 07:56 METAR KEEN 211156Z AUTO 00000KT 10SM CLR 01/01 A3031 RMK AO2 SLP284 T00110006
                 10033 20006 53015 FZRANO =
2017-10-21 06:56 METAR KEEN 211056Z AUTO 20003KT 10SM CLR 01/01 A3028 RMK AO2 SLP277 T00110006
                 FZRANO =
2017-10-21 05:56 METAR KEEN 210956Z AUTO 00000KT 10SM CLR 01/01 A3027 RMK AO2 SLP275 T00110011
                 FZRANO =
2017-10-21 04:56 METAR KEEN 210856Z AUTO 20009KT 10SM CLR 02/01 A3026 RMK AO2 SLP270 T00170011
                 51010 FZRANO =
2017-10-21 03:56 METAR KEEN 210756Z AUTO 20008KT 10SM CLR 02/02 A3026 RMK AO2 SLP267 T00220017
                 FZRANO =
2017-10-21 02:56 METAR KEEN 210656Z AUTO 11011KT 070V220 10SM CLR 03/02 A3024 RMK AO2 SLP263
                 T00280017 =
2017-10-21 01:56 METAR KEEN 210556Z AUTO 00000KT 10SM CLR 03/02 A3023 RMK AO2 SLP259 T00330017
                 10100 20033 51016 =
2017-10-21 00:56 METAR KEEN 210456Z AUTO 00000KT 10SM CLR 04/03 A3021 RMK AO2 SLP253 T00390028
                 402110039 =
2017-10-20 23:56 METAR KEEN 210356Z AUTO 00000KT 10SM CLR 04/02 A3020 RMK AO2 SLP249 T00440022 =
2017-10-20 22:56 METAR KEEN 210256Z AUTO 00000KT 10SM CLR 06/03 A3018 RMK AO2 SLP243 T00560033
                 53022 =
2017-10-20 21:56 METAR KEEN 210156Z AUTO 00000KT 10SM CLR 07/02 A3015 RMK AO2 SLP232 T00670022 =
2017-10-20 20:56 METAR KEEN 210056Z AUTO 00000KT 10SM CLR 08/03 A3014 RMK AO2 SLP228 T00780033 =
2017-10-20 19:56 METAR KEEN 202356Z AUTO 00000KT 10SM CLR 10/04 A3012 RMK AO2 SLP221 T01000039
                 10211 20100 51019 =
2017-10-20 18:56 METAR KEEN 202256Z AUTO 00000KT 10SM CLR 14/03 A3011 RMK AO2 SLP216 T01440028 =
2017-10-20 17:56 METAR KEEN 202156Z AUTO 00000KT 10SM CLR 18/02 A3009 RMK AO2 SLP207 T01780022 =
2017-10-20 16:56 METAR KEEN 202056Z AUTO 33008KT 10SM CLR 21/01 A3006 RMK AO2 SLP198 T02060011
                 51006 =
2017-10-20 15:56 METAR KEEN 201956Z AUTO 34008G17KT 10SM CLR 21/01 A3006 RMK AO2 SLP196 T02110006
                 =

Support USWX by starting your Amazon purchase here.